Terminal Aerodrome Forecast
Issued by NWS

Home | Current Version | Previous Version | Text Only | Print | Product List | Glossary On
Versions: 1 2 3 4 5 6 7 8 9 10 11 12 13 14
000
FTUS42 KGSP 010538
TAFAND
TAF
KAND 010538Z 0106/0206 06006KT P6SM SCT005 BKN025
      TEMPO 0106/0108 BKN005
     FM010800 12007KT 4SM BR OVC010
      TEMPO 0108/0112 2SM -RA BR OVC006
     FM011400 19007KT 5SM HZ BKN020 PROB30 0116/0122 4SM -TSRA
      OVC015CB
     FM012200 22008KT P6SM BKN050=

USA.gov is the U.S. government's official web portal to all federal, state and local government web resources and services.